createdAt,value
2018-02-04T04:32:11.612Z,15.35
2018-02-04T04:34:40.457Z,12.20
2018-02-04T04:37:08.163Z,14.02
2018-02-04T04:39:35.879Z,13.52
2018-02-04T04:42:03.608Z,15.57
2018-02-04T04:44:31.299Z,12.52
2018-02-04T04:46:58.988Z,11.77
2018-02-04T04:49:26.696Z,15.10
2018-02-04T04:51:54.406Z,13.55
2018-02-04T04:54:22.863Z,15.68
2018-02-04T04:56:50.587Z,15.30
2018-02-04T04:59:18.269Z,19.40
2018-02-04T05:01:45.959Z,19.98
2018-02-04T05:04:14.454Z,13.57
2018-02-04T05:06:42.143Z,16.35
2018-02-04T05:09:09.846Z,13.50
2018-02-04T05:11:37.951Z,18.70
2018-02-04T05:14:05.652Z,18.92
2018-02-04T05:16:33.359Z,16.15
2018-02-04T05:19:01.847Z,17.25
2018-02-04T05:21:30.299Z,17.85
2018-02-04T05:23:58.011Z,22.37
2018-02-04T05:26:25.771Z,20.10
2018-02-04T05:28:53.463Z,20.60
2018-02-04T05:31:21.167Z,22.02
2018-02-04T05:33:49.667Z,23.05
2018-02-04T05:36:17.357Z,22.15
2018-02-04T05:38:45.043Z,20.55
2018-02-04T05:41:12.756Z,27.45
2018-02-04T05:43:40.452Z,24.90
2018-02-04T05:46:08.142Z,28.02
2018-02-04T05:48:36.009Z,25.85
2018-02-04T05:51:03.716Z,27.15
2018-02-04T05:53:31.427Z,24.85
2018-02-04T05:55:59.160Z,25.27
2018-02-04T05:58:26.874Z,19.27
2018-02-04T06:00:54.591Z,23.12
2018-02-04T06:03:22.279Z,26.83
2018-02-04T06:05:50.759Z,25.88
2018-02-04T06:08:19.280Z,29.80
2018-02-04T06:10:46.964Z,26.30
2018-02-04T06:13:14.671Z,24.08
2018-02-04T06:15:43.197Z,21.65
2018-02-04T06:18:10.893Z,26.20
2018-02-04T06:20:38.581Z,23.20
2018-02-04T06:23:08.923Z,26.02
2018-02-04T06:25:36.639Z,25.17
2018-02-04T06:28:04.331Z,25.50
2018-02-04T06:30:32.819Z,27.20
2018-02-04T06:33:00.523Z,22.92
2018-02-04T06:35:28.216Z,27.75
2018-02-04T06:37:56.702Z,27.52
2018-02-04T06:40:25.164Z,28.08
2018-02-04T06:42:52.891Z,26.70
2018-02-04T06:45:20.605Z,26.48
2018-02-04T06:47:49.078Z,24.45
2018-02-04T06:50:17.596Z,23.60
2018-02-04T06:52:45.291Z,30.42
2018-02-04T06:55:12.998Z,26.62
2018-02-04T06:57:40.752Z,27.42
2018-02-04T07:00:09.231Z,25.48
2018-02-04T07:02:37.711Z,26.12
2018-02-04T07:05:06.220Z,29.30
2018-02-04T07:07:33.927Z,27.17
2018-02-04T07:10:01.638Z,29.40
2018-02-04T07:12:29.349Z,27.37
2018-02-04T07:14:57.039Z,31.65
2018-02-04T07:17:25.547Z,25.48
2018-02-04T07:19:53.252Z,29.75
2018-02-04T07:22:20.968Z,28.48
2018-02-04T07:24:48.683Z,27.73
2018-02-04T07:27:16.393Z,27.30
2018-02-04T07:29:44.103Z,25.05
2018-02-04T07:32:11.821Z,22.23
2018-02-04T07:34:39.583Z,23.48
2018-02-04T07:37:07.268Z,26.20
2018-02-04T07:39:34.967Z,24.40
2018-02-04T07:42:03.464Z,26.33
2018-02-04T07:44:31.915Z,24.52
2018-02-04T07:46:59.606Z,29.50
2018-02-04T07:49:27.336Z,30.62
2018-02-04T07:51:55.032Z,29.30
2018-02-04T07:54:22.743Z,26.10
2018-02-04T07:56:50.503Z,31.55
2018-02-04T07:59:18.971Z,34.70
2018-02-04T08:01:46.687Z,33.28
2018-02-04T08:04:15.187Z,32.95
2018-02-04T08:06:42.900Z,32.58
2018-02-04T08:09:10.583Z,33.70
2018-02-04T08:11:39.060Z,32.72
2018-02-04T08:14:07.515Z,24.55
2018-02-04T08:16:35.260Z,24.58
2018-02-04T08:19:02.971Z,25.15
2018-02-04T08:21:31.443Z,31.20
2018-02-04T08:23:59.920Z,33.35
2018-02-04T08:26:28.371Z,33.13
2018-02-04T08:28:56.123Z,29.70
2018-02-04T08:31:23.839Z,27.80
2018-02-04T08:33:51.527Z,30.12
2018-02-04T08:36:19.278Z,28.87
2018-02-04T08:38:46.972Z,30.20
2018-02-04T08:41:14.675Z,26.90
2018-02-04T08:43:43.152Z,27.55
2018-02-04T08:46:11.606Z,23.92
2018-02-04T08:48:39.351Z,28.50
2018-02-04T08:51:07.040Z,23.45
2018-02-04T08:53:34.747Z,25.27
2018-02-04T08:56:02.484Z,25.75
2018-02-04T08:58:30.936Z,25.67
2018-02-04T09:00:58.623Z,22.77
2018-02-04T09:03:27.120Z,23.40
2018-02-04T09:05:54.824Z,22.67
2018-02-04T09:08:22.539Z,22.95
2018-02-04T09:10:50.251Z,19.80
2018-02-04T09:13:17.939Z,24.30
2018-02-04T09:15:45.672Z,22.27
2018-02-04T09:18:13.399Z,20.50
2018-02-04T09:20:41.099Z,20.02
2018-02-04T09:23:08.803Z,24.80
2018-02-04T09:25:37.303Z,27.70
2018-02-04T09:28:05.012Z,26.33
2018-02-04T09:30:32.723Z,23.12
2018-02-04T09:33:00.448Z,35.22
2018-02-04T09:35:28.137Z,29.75
2018-02-04T09:37:55.840Z,29.23
2018-02-04T09:40:23.601Z,24.05
2018-02-04T09:42:51.313Z,31.40
2018-02-04T09:45:19.771Z,43.60
2018-02-04T09:47:48.373Z,27.10
2018-02-04T09:50:16.068Z,26.60
2018-02-04T09:52:43.769Z,27.10
2018-02-04T09:55:11.512Z,26.17
2018-02-04T09:57:39.964Z,28.10
2018-02-04T10:00:07.965Z,31.10
2018-02-04T10:02:35.746Z,30.30
2018-02-04T10:05:03.467Z,28.80
2018-02-04T10:07:31.182Z,32.45
2018-02-04T10:09:59.714Z,30.67
2018-02-04T10:12:27.424Z,34.22
2018-02-04T10:14:55.880Z,33.38
2018-02-04T10:17:24.017Z,37.72
2018-02-04T10:19:51.776Z,35.63
2018-02-04T10:22:19.468Z,43.55
2018-02-04T10:24:47.300Z,40.85
2018-02-04T10:27:15.011Z,47.08
2018-02-04T10:29:42.728Z,44.25
2018-02-04T10:32:10.472Z,43.78
2018-02-04T10:34:38.529Z,45.83
2018-02-04T10:37:06.266Z,43.78
2018-02-04T10:39:33.999Z,46.72
2018-02-04T10:42:01.955Z,44.72
2018-02-04T10:44:30.856Z,42.78
2018-02-04T10:46:59.355Z,44.72
2018-02-04T10:49:28.030Z,45.00
2018-02-04T10:52:00.947Z,46.50
2018-02-04T10:54:28.649Z,45.75
2018-02-04T10:56:56.358Z,47.42
2018-02-04T10:59:24.120Z,48.30
2018-02-04T11:01:51.831Z,45.92
2018-02-04T11:04:19.519Z,44.25
2018-02-04T11:06:47.380Z,44.63
2018-02-04T11:09:15.071Z,48.40
2018-02-04T11:11:42.755Z,46.20
2018-02-04T11:14:11.259Z,49.83
2018-02-04T11:16:38.971Z,49.60
2018-02-04T11:19:06.717Z,48.20
2018-02-04T11:21:34.439Z,42.25
2018-02-04T11:24:02.123Z,56.35
2018-02-04T11:26:29.875Z,50.95
2018-02-04T11:28:57.595Z,50.95
2018-02-04T11:31:25.299Z,44.80
2018-02-04T11:33:53.129Z,40.35
2018-02-04T11:36:20.860Z,44.45
2018-02-04T11:38:48.574Z,37.38
2018-02-04T11:41:18.292Z,49.30
2018-02-04T11:43:46.278Z,40.17
2018-02-04T11:46:14.011Z,46.80
2018-02-04T11:48:41.803Z,42.35
2018-02-04T11:51:09.511Z,39.28
2018-02-04T11:53:37.199Z,43.67
2018-02-04T11:56:04.931Z,36.85
2018-02-04T11:58:32.623Z,43.40
2018-02-04T12:01:00.383Z,37.58
2018-02-04T12:03:28.102Z,44.70
2018-02-04T12:05:55.792Z,42.50
2018-02-04T12:08:24.307Z,43.53
2018-02-04T12:10:51.999Z,40.75
2018-02-04T12:13:19.709Z,39.90
2018-02-04T12:15:47.444Z,39.10
2018-02-04T12:18:15.161Z,37.38
2018-02-04T12:20:42.856Z,39.30
2018-02-04T12:23:10.608Z,41.78
2018-02-04T12:25:38.303Z,38.47
2018-02-04T12:28:06.770Z,35.78
2018-02-04T12:30:34.609Z,39.45
2018-02-04T12:33:03.068Z,38.10
2018-02-04T12:35:30.779Z,39.85
2018-02-04T12:37:59.302Z,39.53
2018-02-04T12:40:27.016Z,33.78
2018-02-04T12:42:54.704Z,35.60
2018-02-04T12:45:23.208Z,40.50
2018-02-04T12:47:51.367Z,36.50
2018-02-04T12:50:19.107Z,33.10
2018-02-04T12:52:47.594Z,31.30
2018-02-04T12:55:16.107Z,29.20
2018-02-04T12:57:43.819Z,28.58
2018-02-04T13:00:11.558Z,29.00
2018-02-04T13:02:39.271Z,33.28
2018-02-04T13:05:06.964Z,36.25
2018-02-04T13:07:34.718Z,35.80
2018-02-04T13:10:02.435Z,34.03
2018-02-04T13:12:30.912Z,34.42
2018-02-04T13:14:59.447Z,26.58
2018-02-04T13:17:27.163Z,30.55
2018-02-04T13:19:55.640Z,34.67
2018-02-04T13:22:24.143Z,30.05
2018-02-04T13:24:51.850Z,33.83
2018-02-04T13:27:19.575Z,30.12
2018-02-04T13:29:47.296Z,33.67
2018-02-04T13:32:15.005Z,30.67
2018-02-04T13:34:43.476Z,28.38
2018-02-04T13:37:11.210Z,33.70
2018-02-04T13:39:39.836Z,28.95
2018-02-04T13:42:07.601Z,31.20
2018-02-04T13:44:35.285Z,30.25
2018-02-04T13:47:02.979Z,36.83
2018-02-04T13:49:31.487Z,38.22
2018-02-04T13:51:59.199Z,34.00
2018-02-04T13:54:26.899Z,32.33
2018-02-04T13:56:54.624Z,31.77
2018-02-04T13:59:22.327Z,34.95
2018-02-04T14:01:50.043Z,38.72
2018-02-04T14:04:17.756Z,34.53
2018-02-04T14:06:45.467Z,38.83
2018-02-04T14:09:13.165Z,39.58
2018-02-04T14:11:41.654Z,44.05
2018-02-04T14:14:09.507Z,42.28
2018-02-04T14:16:37.984Z,47.40
2018-02-04T14:19:06.507Z,42.92
2018-02-04T14:21:34.215Z,40.75
2018-02-04T14:24:02.677Z,42.30
2018-02-04T14:26:30.408Z,39.90
2018-02-04T14:28:58.868Z,41.70
2018-02-04T14:31:26.585Z,43.85
2018-02-04T14:33:54.328Z,45.78
2018-02-04T14:36:22.011Z,47.35
2018-02-04T14:38:49.729Z,46.72
2018-02-04T14:41:17.488Z,43.50
2018-02-04T14:43:45.498Z,51.50
2018-02-04T14:46:13.210Z,48.10
2018-02-04T14:48:41.127Z,46.80
2018-02-04T14:51:10.231Z,48.30
2018-02-04T14:53:38.543Z,51.37
2018-02-04T14:56:06.247Z,53.42
2018-02-04T14:58:34.019Z,46.75
2018-02-04T15:01:01.739Z,45.38
2018-02-04T15:03:29.452Z,44.63
2018-02-04T15:05:57.239Z,53.65
2018-02-04T15:08:25.835Z,46.70
2018-02-04T15:10:53.587Z,48.25
2018-02-04T15:13:21.638Z,54.78
2018-02-04T15:15:49.367Z,48.45
2018-02-04T15:18:17.075Z,50.88
2018-02-04T15:20:45.555Z,50.17
2018-02-04T15:23:14.208Z,48.20
2018-02-04T15:25:42.236Z,50.83
2018-02-04T15:28:10.074Z,58.58
2018-02-04T15:30:37.883Z,50.55
2018-02-04T15:33:05.575Z,57.22
2018-02-04T15:35:33.263Z,52.53
2018-02-04T15:38:01.755Z,51.45
2018-02-04T15:40:29.622Z,53.25
2018-02-04T15:42:58.295Z,50.28
2018-02-04T15:45:25.983Z,55.20
2018-02-04T15:47:54.187Z,52.10
2018-02-04T15:50:22.015Z,51.92
2018-02-04T15:52:49.708Z,56.40
2018-02-04T15:55:17.392Z,45.80
2018-02-04T15:57:45.156Z,54.90
2018-02-04T16:00:12.859Z,54.53
2018-02-04T16:02:40.548Z,45.63
2018-02-04T16:05:08.315Z,56.17
2018-02-04T16:07:36.077Z,56.30
2018-02-04T16:10:03.792Z,53.13
2018-02-04T16:12:31.523Z,47.42
2018-02-04T16:14:59.211Z,52.33
2018-02-04T16:17:26.949Z,49.20
2018-02-04T16:19:54.668Z,44.75
2018-02-04T16:22:22.480Z,48.15
2018-02-04T16:24:51.011Z,46.22
2018-02-04T16:27:18.729Z,43.22
2018-02-04T16:29:47.210Z,41.47
2018-02-04T16:32:15.711Z,47.60
2018-02-04T16:34:43.404Z,40.85
2018-02-04T16:37:11.487Z,41.08
2018-02-04T16:39:39.276Z,37.95
2018-02-04T16:42:06.968Z,48.00
2018-02-04T16:44:34.802Z,41.25
2018-02-04T16:47:03.268Z,37.03
2018-02-04T16:49:30.983Z,34.70
2018-02-04T16:51:58.752Z,38.83
2018-02-04T16:54:27.294Z,40.65
2018-02-04T16:56:55.068Z,40.95
2018-02-04T16:59:23.548Z,39.40
2018-02-04T17:01:52.023Z,40.83
2018-02-04T17:04:20.501Z,42.08
2018-02-04T17:09:21.774Z,38.05
2018-02-04T17:11:49.471Z,37.17
2018-02-04T17:14:17.159Z,40.38
2018-02-04T17:16:44.868Z,36.55
2018-02-04T17:19:12.572Z,42.00
2018-02-04T17:21:40.283Z,40.50
2018-02-04T17:24:07.995Z,42.28
2018-02-04T17:26:35.731Z,40.60
2018-02-04T17:29:03.504Z,40.17
2018-02-04T17:31:31.193Z,45.25
2018-02-04T17:33:58.880Z,41.45
2018-02-04T17:36:27.372Z,39.65
2018-02-04T17:38:55.096Z,42.10
2018-02-04T17:41:22.841Z,43.58
2018-02-04T17:43:50.555Z,40.40
2018-02-04T17:46:18.267Z,47.08
2018-02-04T17:48:46.029Z,35.65
2018-02-04T17:51:13.747Z,39.08
2018-02-04T17:53:41.435Z,40.95
2018-02-04T17:56:09.144Z,38.70
2018-02-04T17:58:36.832Z,39.83
2018-02-04T18:01:04.597Z,33.33
2018-02-04T18:03:32.292Z,38.30
2018-02-04T18:06:00.018Z,39.88
2018-02-04T18:08:27.827Z,36.83
2018-02-04T18:10:55.519Z,35.90
2018-02-04T18:13:24.051Z,35.65
2018-02-04T18:15:51.833Z,30.98
2018-02-04T18:18:19.524Z,34.15
2018-02-04T18:20:48.015Z,33.30
2018-02-04T18:23:16.471Z,30.52
2018-02-04T18:25:44.220Z,27.05
2018-02-04T18:28:11.935Z,30.10
2018-02-04T18:30:39.627Z,27.92
2018-02-04T18:33:07.363Z,27.25
2018-02-04T18:35:35.051Z,35.50
2018-02-04T18:38:02.789Z,28.87
2018-02-04T18:40:30.488Z,69.97
2018-02-04T18:42:58.179Z,31.10
2018-02-04T18:45:26.683Z,36.38
2018-02-04T18:47:54.593Z,30.33
2018-02-04T18:50:23.079Z,55.05
2018-02-04T18:52:50.832Z,31.25
2018-02-04T18:55:18.551Z,36.30
2018-02-04T18:57:46.275Z,32.22
2018-02-04T19:00:14.051Z,27.60
2018-02-04T19:02:42.555Z,32.78
2018-02-04T19:05:10.268Z,33.95
2018-02-04T19:07:38.752Z,36.17
2018-02-04T19:10:06.499Z,34.15
2018-02-04T19:12:34.192Z,32.72
2018-02-04T19:15:01.889Z,32.72
2018-02-04T19:17:29.619Z,37.15
2018-02-04T19:19:57.336Z,33.47
2018-02-04T19:22:25.034Z,33.70
2018-02-04T19:24:52.813Z,32.40
2018-02-04T19:27:21.276Z,32.35
2018-02-04T19:29:48.968Z,37.30
2018-02-04T19:32:17.484Z,37.03
2018-02-04T19:34:45.179Z,34.20
2018-02-04T19:37:12.924Z,37.25
2018-02-04T19:39:40.650Z,31.48
2018-02-04T19:42:08.345Z,34.67
2018-02-04T19:44:36.096Z,33.33
2018-02-04T19:47:03.795Z,35.03
2018-02-04T19:49:31.527Z,38.00
2018-02-04T19:51:59.462Z,40.28
2018-02-04T19:54:27.174Z,36.85
2018-02-04T19:56:55.042Z,33.38
2018-02-04T19:59:22.827Z,28.73
2018-02-04T20:01:51.384Z,32.83
2018-02-04T20:04:20.192Z,28.52
2018-02-04T20:06:48.230Z,35.05
2018-02-04T20:09:17.220Z,31.33
2018-02-04T20:11:45.188Z,35.13
2018-02-04T20:14:12.952Z,33.78
2018-02-04T20:16:41.226Z,33.35
2018-02-04T20:19:10.218Z,31.83
2018-02-04T20:21:38.287Z,40.33
2018-02-04T20:24:06.975Z,36.65
2018-02-04T20:26:34.837Z,30.37
2018-02-04T20:29:02.600Z,34.80
2018-02-04T20:31:30.363Z,28.33
2018-02-04T20:34:10.311Z,36.30
2018-02-04T20:36:38.074Z,34.10
2018-02-04T20:39:05.942Z,40.17
2018-02-04T20:41:33.716Z,33.92
2018-02-04T20:44:02.285Z,32.58
2018-02-04T20:46:30.149Z,37.58
2018-02-04T20:48:58.060Z,37.88
2018-02-04T20:51:26.538Z,34.67
2018-02-04T20:53:55.005Z,32.50
2018-02-04T20:56:23.104Z,39.67
2018-02-04T20:58:50.791Z,90.05
2018-02-04T21:01:18.640Z,39.63
2018-02-04T21:03:46.331Z,42.97
2018-02-04T21:06:14.050Z,37.13
2018-02-04T21:08:41.767Z,31.67
2018-02-04T21:11:09.499Z,30.95
2018-02-04T21:13:37.224Z,36.45
2018-02-04T21:16:05.752Z,34.28
2018-02-04T21:18:33.464Z,36.95
2018-02-04T21:21:01.943Z,34.03
2018-02-04T21:23:30.444Z,32.53
2018-02-04T21:25:58.201Z,37.55
2018-02-04T21:28:25.888Z,32.17
2018-02-04T21:30:53.608Z,35.60
2018-02-04T21:33:22.107Z,31.67
2018-02-04T21:35:49.824Z,29.25
2018-02-04T21:38:17.544Z,33.38
2018-02-04T21:40:45.299Z,35.25
2018-02-04T21:43:13.007Z,38.95
2018-02-04T21:45:40.700Z,37.30
2018-02-04T21:48:09.227Z,38.17
2018-02-04T21:50:36.959Z,34.13
2018-02-04T21:53:04.654Z,32.45
2018-02-04T21:55:32.414Z,35.78
2018-02-04T21:58:00.107Z,30.98
2018-02-04T22:00:28.079Z,30.27
2018-02-04T22:02:55.850Z,31.17
2018-02-04T22:05:24.315Z,34.85
2018-02-04T22:07:52.009Z,38.70
2018-02-04T22:10:19.822Z,33.25
2018-02-04T22:12:48.283Z,32.50
2018-02-04T22:15:16.163Z,32.78
2018-02-04T22:17:43.884Z,29.10
2018-02-04T22:20:11.595Z,31.62
2018-02-04T22:22:39.311Z,27.55
2018-02-04T22:25:07.031Z,24.73
2018-02-04T22:27:34.724Z,30.92
2018-02-04T22:30:03.203Z,32.67
2018-02-04T22:32:31.667Z,32.20
2018-02-04T22:35:00.176Z,35.30
2018-02-04T22:37:27.923Z,30.20
2018-02-04T22:39:56.406Z,27.60
2018-02-04T22:42:24.887Z,31.37
2018-02-04T22:44:52.643Z,39.60
2018-02-04T22:47:21.095Z,29.08
2018-02-04T22:49:48.819Z,30.70
2018-02-04T22:52:16.563Z,32.40
2018-02-04T22:54:44.277Z,32.35
2018-02-04T22:57:12.025Z,37.72
2018-02-04T22:59:40.015Z,30.92
2018-02-04T23:02:08.572Z,35.67
2018-02-04T23:04:36.448Z,29.25
2018-02-04T23:07:04.416Z,36.78
2018-02-04T23:09:33.055Z,33.17
2018-02-04T23:12:00.752Z,39.70
2018-02-04T23:14:28.520Z,33.72
2018-02-04T23:16:56.216Z,29.85
2018-02-04T23:19:24.675Z,36.70
2018-02-04T23:21:52.439Z,30.77
2018-02-04T23:24:20.135Z,35.35
2018-02-04T23:26:47.850Z,32.38
2018-02-04T23:29:15.591Z,32.10
